Time;durP1;ratioP1;P1;durP2;ratioP2;P2;SDS_P1;SDS_P2;PMS_P1;PMS_P2;Temp;Humidity;BMP_temperature;BMP_pressure;BME280_temperature;BME280_humidity;BME280_pressure;Samples;Min_cycle;Max_cycle;Signal;HPM_P1;HPM_P2
2022/11/07 00:03:49;;;;;;;0.20;0.10;;;14.30;99.90;;;;;;25509857;23;20862;-72
2022/11/07 00:13:54;;;;;;;0.20;0.10;;;14.20;99.90;;;;;;25534823;23;20380;-73
2022/11/07 00:23:58;;;;;;;0.20;0.10;;;14.10;99.90;;;;;;25515799;23;20384;-73
2022/11/07 00:34:03;;;;;;;0.20;0.00;;;14.10;99.90;;;;;;25540123;23;20372;-72
2022/11/07 00:44:07;;;;;;;0.20;0.00;;;13.90;99.90;;;;;;25541095;23;20384;-73
2022/11/07 00:54:12;;;;;;;0.20;0.00;;;13.90;99.90;;;;;;25515936;23;20362;-73
2022/11/07 01:14:38;;;;;;;0.20;0.00;;;13.90;99.90;;;;;;25510175;23;20377;-73
2022/11/07 01:24:42;;;;;;;0.20;0.10;;;13.70;99.90;;;;;;25538357;23;20381;-74
2022/11/07 01:34:47;;;;;;;0.20;0.10;;;13.50;99.90;;;;;;25540388;23;20369;-74
2022/11/07 01:44:56;;;;;;;0.20;0.00;;;13.60;99.90;;;;;;25539900;23;20369;-73
2022/11/07 01:55:08;;;;;;;0.20;0.03;;;13.50;99.90;;;;;;25537067;23;20365;-73
2022/11/07 02:05:17;;;;;;;0.20;0.10;;;13.70;99.90;;;;;;25537460;23;20404;-73
2022/11/07 02:15:22;;;;;;;0.20;0.10;;;13.70;99.90;;;;;;25538212;23;20380;-73
2022/11/07 02:25:27;;;;;;;0.20;0.00;;;13.90;99.90;;;;;;25509751;23;20381;-73
2022/11/07 02:35:38;;;;;;;0.20;0.10;;;14.00;99.90;;;;;;25535479;23;20373;-72
2022/11/07 02:45:46;;;;;;;0.20;0.10;;;14.00;99.90;;;;;;25509292;23;20381;-74
2022/11/07 02:55:50;;;;;;;0.20;0.00;;;14.30;99.90;;;;;;25509617;23;20369;-72
2022/11/07 03:05:55;;;;;;;0.20;0.10;;;14.30;99.90;;;;;;25536573;23;20388;-73
2022/11/07 03:15:58;;;;;;;0.20;0.10;;;14.60;99.90;;;;;;25534236;23;20400;-72
2022/11/07 03:26:04;;;;;;;0.20;0.10;;;14.10;99.90;;;;;;25509481;23;20377;-73
2022/11/07 03:36:09;;;;;;;0.20;0.10;;;14.00;99.90;;;;;;25535578;23;20365;-72
2022/11/07 03:46:15;;;;;;;0.20;0.10;;;13.90;99.90;;;;;;25534345;23;20988;-71
2022/11/07 03:56:19;;;;;;;0.20;0.00;;;13.80;99.90;;;;;;25514424;23;20380;-73
2022/11/07 04:06:24;;;;;;;0.20;0.10;;;13.80;99.90;;;;;;25540531;23;20397;-73
2022/11/07 04:37:20;;;;;;;0.20;0.00;;;14.20;99.90;;;;;;25542261;23;20381;-72
2022/11/07 04:47:25;;;;;;;0.20;0.00;;;14.30;99.90;;;;;;25538730;23;20369;-72
2022/11/07 04:57:29;;;;;;;0.20;0.07;;;14.20;99.90;;;;;;25517292;23;20392;-71
2022/11/07 05:07:34;;;;;;;0.20;0.10;;;14.00;99.90;;;;;;25539374;23;20373;-73
2022/11/07 05:17:38;;;;;;;0.20;0.00;;;13.90;99.90;;;;;;25515231;23;20374;-74
2022/11/07 05:27:43;;;;;;;0.20;0.10;;;13.80;99.90;;;;;;25511579;23;20381;-73
2022/11/07 05:37:47;;;;;;;0.20;0.10;;;13.60;99.90;;;;;;25539375;23;20373;-73
2022/11/07 05:47:58;;;;;;;0.20;0.00;;;13.40;99.90;;;;;;25537963;23;20373;-74
2022/11/07 05:58:08;;;;;;;0.20;0.10;;;13.50;99.90;;;;;;25537464;23;20373;-72
2022/11/07 06:08:14;;;;;;;0.27;0.23;;;13.20;99.90;;;;;;25510437;23;20414;-72
2022/11/07 06:18:19;;;;;;;0.20;0.10;;;13.20;99.90;;;;;;25510278;23;20381;-72
2022/11/07 06:28:24;;;;;;;0.20;0.10;;;13.30;99.90;;;;;;25536230;23;20378;-74
2022/11/07 06:38:28;;;;;;;0.20;0.10;;;13.40;99.90;;;;;;25533503;23;20378;-73
2022/11/07 06:48:34;;;;;;;0.20;0.10;;;13.40;99.90;;;;;;25528924;23;20385;-72
2022/11/07 06:58:38;;;;;;;0.20;0.00;;;13.30;99.90;;;;;;25523845;23;20365;-74
2022/11/07 07:08:44;;;;;;;0.20;0.10;;;13.50;99.90;;;;;;25526455;23;20388;-72
2022/11/07 07:18:47;;;;;;;0.20;0.10;;;13.90;99.90;;;;;;25505118;23;20471;-73
2022/11/07 07:28:52;;;;;;;0.20;0.10;;;14.40;99.90;;;;;;25530241;23;20381;-70
2022/11/07 07:38:56;;;;;;;0.20;0.10;;;14.90;99.90;;;;;;25530817;23;20377;-73
2022/11/07 07:49:01;;;;;;;0.20;0.10;;;15.20;99.90;;;;;;25527724;23;20436;-73
2022/11/07 07:59:05;;;;;;;0.20;0.10;;;15.50;99.90;;;;;;25528933;23;20377;-75
2022/11/07 08:09:10;;;;;;;0.20;0.10;;;16.00;99.90;;;;;;25527232;23;20377;-70
2022/11/07 08:19:14;;;;;;;0.20;0.00;;;16.70;99.90;;;;;;25501710;23;20369;-73
2022/11/07 08:29:19;;;;;;;0.20;0.00;;;17.40;99.90;;;;;;25528696;23;20384;-73
2022/11/07 08:39:23;;;;;;;0.20;0.00;;;18.30;99.90;;;;;;25508571;23;20361;-74
2022/11/07 08:49:28;;;;;;;0.20;0.00;;;19.00;99.90;;;;;;25537402;23;20424;-75
2022/11/07 08:59:32;;;;;;;0.20;0.00;;;19.50;99.90;;;;;;25536012;23;20373;-73
2022/11/07 09:09:37;;;;;;;0.20;0.00;;;19.40;99.90;;;;;;25535798;23;20373;-76
2022/11/07 09:19:41;;;;;;;0.20;0.00;;;19.70;99.90;;;;;;25535002;23;20373;-72
2022/11/07 09:29:46;;;;;;;0.20;0.10;;;19.80;99.90;;;;;;25534796;23;20374;-74
2022/11/07 09:39:50;;;;;;;0.20;0.00;;;19.60;99.90;;;;;;25533768;23;20366;-76
2022/11/07 09:49:59;;;;;;;0.20;0.00;;;19.50;99.90;;;;;;25506277;23;20392;-73
2022/11/07 10:00:09;;;;;;;0.20;0.05;;;19.90;99.90;;;;;;25531288;23;20389;-73
2022/11/07 10:10:22;;;;;;;0.20;0.10;;;20.50;99.90;;;;;;25504871;23;20392;-74
2022/11/07 10:20:39;;;;;;;0.20;0.10;;;21.30;99.90;;;;;;25531361;23;20369;-73
2022/11/07 10:30:48;;;;;;;0.20;0.00;;;21.80;99.90;;;;;;25504551;23;20388;-73
2022/11/07 10:40:52;;;;;;;0.20;0.10;;;22.40;99.90;;;;;;25530274;23;20376;-74
2022/11/07 10:50:59;;;;;;;0.20;0.00;;;22.30;99.90;;;;;;25528549;23;20381;-72
2022/11/07 11:01:06;;;;;;;0.20;0.00;;;23.00;99.90;;;;;;25526662;23;20366;-72
2022/11/07 11:11:16;;;;;;;0.20;0.00;;;22.90;99.90;;;;;;25530785;23;20392;-71
2022/11/07 11:21:20;;;;;;;0.20;0.00;;;23.80;99.90;;;;;;25529829;23;20385;-73
2022/11/07 11:31:33;;;;;;;0.20;0.00;;;22.10;99.90;;;;;;25530219;23;20537;-74
2022/11/07 11:41:50;;;;;;;0.20;0.00;;;23.30;99.90;;;;;;25524887;23;20369;-73
2022/11/07 11:51:59;;;;;;;0.20;0.00;;;23.90;99.90;;;;;;25497161;23;20384;-73
2022/11/07 12:02:20;;;;;;;0.20;0.07;;;23.40;99.90;;;;;;25500109;23;20362;-73
2022/11/07 12:12:30;;;;;;;0.20;0.10;;;23.00;99.90;;;;;;25503114;23;20366;-72
2022/11/07 12:22:46;;;;;;;0.20;0.00;;;23.30;99.90;;;;;;25534700;23;20456;-73
2022/11/07 12:33:05;;;;;;;0.20;0.00;;;23.00;99.90;;;;;;25510032;23;20405;-72
2022/11/07 12:43:21;;;;;;;0.20;0.00;;;23.00;99.90;;;;;;25532105;23;20361;-72
2022/11/07 12:53:35;;;;;;;0.20;0.00;;;23.20;99.90;;;;;;25530935;23;20362;-73
2022/11/07 13:03:54;;;;;;;0.20;0.00;;;22.90;99.90;;;;;;25531882;23;20388;-76
2022/11/07 13:14:18;;;;;;;0.20;0.00;;;21.90;99.90;;;;;;25530301;23;20400;-75
2022/11/07 13:24:26;;;;;;;0.20;0.00;;;21.60;99.90;;;;;;25530953;23;20369;-71
2022/11/07 13:34:40;;;;;;;0.20;0.00;;;21.90;99.90;;;;;;25526389;23;20384;-73
2022/11/07 13:44:51;;;;;;;0.20;0.00;;;21.60;99.90;;;;;;25522954;23;20380;-73
2022/11/07 13:55:03;;;;;;;0.20;0.00;;;21.10;99.90;;;;;;25530798;23;20374;-73
2022/11/07 14:05:10;;;;;;;0.20;0.00;;;20.80;99.90;;;;;;25529294;23;20368;-74
2022/11/07 14:15:23;;;;;;;0.20;0.00;;;21.10;99.90;;;;;;25505140;23;20369;-74
2022/11/07 14:25:29;;;;;;;0.20;0.00;;;21.60;99.90;;;;;;25529949;23;20358;-71
2022/11/07 14:35:35;;;;;;;0.20;0.00;;;21.10;99.90;;;;;;25529526;23;20377;-73
2022/11/07 14:45:42;;;;;;;0.20;0.00;;;20.80;99.90;;;;;;25531598;23;20377;-73
2022/11/07 14:56:11;;;;;;;0.20;0.00;;;20.80;99.90;;;;;;25528287;23;20385;-72
2022/11/07 15:06:22;;;;;;;0.20;0.00;;;21.00;99.90;;;;;;25527014;23;20850;-73
2022/11/07 15:16:35;;;;;;;0.20;0.00;;;20.60;99.90;;;;;;25529459;23;20373;-74
2022/11/07 15:26:39;;;;;;;0.20;0.00;;;19.90;99.90;;;;;;25524527;23;20376;-74
2022/11/07 15:36:44;;;;;;;0.20;0.00;;;20.20;99.90;;;;;;25530122;23;20385;-74
2022/11/07 15:46:48;;;;;;;0.20;0.10;;;20.00;99.90;;;;;;25523091;23;20385;-74
2022/11/07 15:56:57;;;;;;;0.20;0.00;;;19.60;99.90;;;;;;25527101;23;20381;-73
2022/11/07 16:07:01;;;;;;;0.20;0.00;;;19.50;99.90;;;;;;25526810;23;20397;-74
2022/11/07 16:17:07;;;;;;;0.20;0.00;;;19.50;99.90;;;;;;25525847;23;20381;-72
2022/11/07 16:27:15;;;;;;;0.20;0.00;;;19.10;99.90;;;;;;25526248;23;20401;-72
2022/11/07 16:37:20;;;;;;;0.20;0.00;;;19.10;99.90;;;;;;25529094;23;20373;-72
2022/11/07 16:47:24;;;;;;;0.20;0.07;;;18.70;99.90;;;;;;25529070;23;20377;-72
2022/11/07 16:57:30;;;;;;;0.20;0.00;;;18.70;99.90;;;;;;25530829;23;20363;-73
2022/11/07 17:07:33;;;;;;;0.20;0.00;;;18.60;99.90;;;;;;25533632;23;20401;-71
2022/11/07 17:17:39;;;;;;;0.20;0.00;;;18.40;99.90;;;;;;25534652;23;20380;-71
2022/11/07 17:27:45;;;;;;;0.20;0.10;;;18.40;99.90;;;;;;25534839;23;20408;-70
2022/11/07 17:37:50;;;;;;;0.20;0.00;;;17.50;99.90;;;;;;25506913;23;20362;-74
2022/11/07 17:47:54;;;;;;;0.20;0.10;;;17.00;99.90;;;;;;25532201;23;20381;-74
2022/11/07 17:57:59;;;;;;;0.20;0.10;;;16.70;99.90;;;;;;25507062;23;20369;-74
2022/11/07 18:08:03;;;;;;;0.20;0.10;;;16.40;99.90;;;;;;25528921;23;20397;-71
2022/11/07 18:18:10;;;;;;;0.20;0.10;;;16.40;99.90;;;;;;25508385;23;20419;-73
2022/11/07 18:28:14;;;;;;;0.20;0.05;;;16.00;99.90;;;;;;25526647;23;20436;-72
2022/11/07 18:38:20;;;;;;;0.20;0.00;;;15.80;99.90;;;;;;25527521;23;20389;-71
2022/11/07 18:48:24;;;;;;;0.20;0.10;;;15.80;99.90;;;;;;25524817;23;20384;-73
2022/11/07 18:58:30;;;;;;;0.20;0.00;;;15.60;99.90;;;;;;25503087;23;20377;-70
2022/11/07 19:08:36;;;;;;;0.20;0.10;;;15.50;99.90;;;;;;25528211;23;20396;-71
2022/11/07 19:18:42;;;;;;;0.20;0.10;;;15.40;99.90;;;;;;25498464;23;20373;-71
2022/11/07 19:28:52;;;;;;;0.20;0.00;;;15.40;99.90;;;;;;25524397;23;20381;-70
2022/11/07 19:38:58;;;;;;;0.20;0.00;;;15.00;99.90;;;;;;25491376;23;20366;-71
2022/11/07 19:49:01;;;;;;;0.20;0.10;;;14.80;99.90;;;;;;25525349;23;20385;-72
2022/11/07 19:59:07;;;;;;;0.20;0.10;;;14.80;99.90;;;;;;25525400;23;20384;-72
2022/11/07 20:09:12;;;;;;;0.20;0.00;;;14.70;99.90;;;;;;25501558;23;20408;-71
2022/11/07 20:19:17;;;;;;;0.20;0.00;;;14.60;99.90;;;;;;25526524;23;20380;-71
2022/11/07 20:29:22;;;;;;;0.20;0.00;;;14.60;99.90;;;;;;25526692;23;20380;-72
2022/11/07 20:39:30;;;;;;;0.20;0.00;;;14.60;99.90;;;;;;25510690;23;20380;-73
2022/11/07 20:49:34;;;;;;;0.20;0.10;;;14.60;99.90;;;;;;25533265;23;20377;-72
2022/11/07 20:59:40;;;;;;;0.20;0.03;;;14.60;99.90;;;;;;25534947;23;20385;-72
2022/11/07 21:09:44;;;;;;;0.20;0.00;;;14.50;99.90;;;;;;25507844;23;20425;-74
2022/11/07 21:20:38;;;;;;;0.20;0.10;;;14.60;99.90;;;;;;25408180;23;20370;-71
2022/11/07 21:30:58;;;;;;;0.20;0.10;;;14.50;99.90;;;;;;25410451;23;20378;-72
2022/11/07 21:41:06;;;;;;;0.20;0.10;;;14.40;99.90;;;;;;25409203;23;20387;-74
2022/11/07 21:51:30;;;;;;;0.20;0.10;;;14.60;99.90;;;;;;25410417;23;20394;-74
2022/11/07 22:01:36;;;;;;;0.20;0.03;;;14.60;99.90;;;;;;25413171;23;20374;-74
2022/11/07 22:11:55;;;;;;;0.20;0.10;;;14.50;99.90;;;;;;25415377;23;20485;-74
2022/11/07 22:22:02;;;;;;;0.20;0.10;;;14.50;99.90;;;;;;25511284;23;20404;-71
2022/11/07 22:32:06;;;;;;;0.20;0.10;;;14.50;99.90;;;;;;25534259;23;20381;-70
2022/11/07 22:42:11;;;;;;;0.20;0.10;;;14.30;99.90;;;;;;25535827;23;20366;-71
2022/11/07 22:52:15;;;;;;;0.20;0.10;;;14.10;99.90;;;;;;25535487;23;20382;-71
2022/11/07 23:02:22;;;;;;;0.20;0.00;;;14.20;99.90;;;;;;25535855;23;20362;-71
2022/11/07 23:12:26;;;;;;;0.20;0.00;;;13.90;99.90;;;;;;25533806;23;20416;-70
2022/11/07 23:22:31;;;;;;;0.20;0.00;;;13.90;99.90;;;;;;25536229;23;20388;-70
2022/11/07 23:32:35;;;;;;;0.20;0.00;;;14.00;99.90;;;;;;25533954;23;20376;-70
2022/11/07 23:42:40;;;;;;;0.20;0.10;;;14.00;99.90;;;;;;25535475;23;20384;-71
2022/11/07 23:52:44;;;;;;;0.20;0.00;;;14.00;99.90;;;;;;25532692;23;20365;-72
